createdAt,value
2022-10-11T00:05:42.584Z,7.7
2022-10-11T00:15:43.184Z,7.7
2022-10-11T00:45:44.462Z,7.5
2022-10-11T01:05:45.043Z,7.3
2022-10-11T01:15:45.898Z,7.3
2022-10-11T01:25:46.769Z,7.2
2022-10-11T01:35:46.874Z,7.2
2022-10-11T01:45:47.426Z,7.2
2022-10-11T01:55:47.604Z,7.1
2022-10-11T02:05:48.199Z,7.1
2022-10-11T02:15:49.197Z,7
2022-10-11T02:25:50.178Z,6.9
2022-10-11T02:35:50.283Z,6.8
2022-10-11T02:55:51.603Z,6.6
2022-10-11T03:05:51.848Z,6.5
2022-10-11T03:16:07.325Z,6.5
2022-10-11T03:25:52.703Z,6.5
2022-10-11T03:35:52.832Z,6.4
2022-10-11T03:45:53.450Z,6.4
2022-10-11T03:55:53.793Z,6.3
2022-10-11T04:05:54.001Z,6.2
2022-10-11T04:15:54.774Z,6.3
2022-10-11T04:25:55.436Z,6.3
2022-10-11T04:35:55.733Z,6.2
2022-10-11T04:45:56.724Z,6.2
2022-10-11T04:55:56.852Z,6.2
2022-10-11T05:05:58.002Z,6.1
2022-10-11T05:15:57.490Z,6.1
2022-10-11T05:25:58.488Z,6.1
2022-10-11T05:35:59.325Z,6.1
2022-10-11T05:45:59.743Z,6.1
2022-10-11T05:56:00.052Z,6.3
2022-10-11T06:06:00.417Z,6.4
2022-10-11T06:16:00.549Z,6.4
2022-10-11T06:36:01.761Z,6.7
2022-10-11T06:46:02.477Z,6.9
2022-10-11T06:56:03.175Z,7.1
2022-10-11T07:06:03.987Z,7.5
2022-10-11T07:16:04.521Z,7.7
2022-10-11T07:26:05.562Z,8
2022-10-11T07:46:06.345Z,8.6
2022-10-11T07:56:07.699Z,9.1
2022-10-11T08:06:07.806Z,9.4
2022-10-11T08:16:08.273Z,9.8
2022-10-11T08:26:08.675Z,10.1
2022-10-11T08:36:09.465Z,10.4
2022-10-11T08:46:09.903Z,10.8
2022-10-11T08:56:10.851Z,11
2022-10-11T09:06:11.544Z,11.4
2022-10-11T09:16:11.772Z,11.8
2022-10-11T09:26:12.607Z,12.1
2022-10-11T09:46:13.058Z,12.5
2022-10-11T09:56:13.318Z,12.9
2022-10-11T10:06:14.270Z,13
2022-10-11T10:16:14.912Z,13.1
2022-10-11T10:36:16.359Z,13.8
2022-10-11T10:46:16.550Z,13.6
2022-10-11T10:56:17.301Z,13.6
2022-10-11T11:06:17.844Z,13.7
2022-10-11T11:16:18.762Z,13.6
2022-10-11T11:26:19.623Z,13.7
2022-10-11T11:36:20.075Z,13.8
2022-10-11T11:46:20.743Z,14.4
2022-10-11T11:56:20.977Z,14.4
2022-10-11T12:06:21.371Z,13.8
2022-10-11T12:16:21.598Z,14
2022-10-11T12:36:23.587Z,14.3
2022-10-11T12:46:24.125Z,14.1
2022-10-11T13:06:24.821Z,13.7
2022-10-11T13:16:25.375Z,13.6
2022-10-11T13:26:25.622Z,14
2022-10-11T13:36:25.975Z,14.5
2022-10-11T13:46:26.664Z,14.4
2022-10-11T14:06:27.487Z,14.5
2022-10-11T14:16:27.842Z,14.4
2022-10-11T14:26:28.544Z,14.3
2022-10-11T14:36:29.534Z,14.4
2022-10-11T14:46:29.923Z,14.5
2022-10-11T14:56:30.242Z,14.3
2022-10-11T15:06:30.305Z,14.4
2022-10-11T15:16:30.900Z,14.4
2022-10-11T15:26:31.456Z,14.2
2022-10-11T15:36:32.326Z,14.1
2022-10-11T15:46:32.711Z,14
2022-10-11T15:56:33.938Z,13.9
2022-10-11T16:16:33.946Z,13.6
2022-10-11T16:26:34.872Z,13.2
2022-10-11T16:36:35.225Z,12.7
2022-10-11T16:46:35.806Z,11.9
2022-10-11T17:06:36.741Z,11
2022-10-11T17:26:37.743Z,10.3
2022-10-11T17:46:38.716Z,9.8
2022-10-11T18:46:50.407Z,8.9
2022-10-11T19:36:52.299Z,8.8
2022-10-11T20:26:54.613Z,8.3
2022-10-11T21:37:00.453Z,7.5
2022-10-11T21:47:06.883Z,7.4
2022-10-11T23:17:06.991Z,6.2
2022-10-11T23:27:07.228Z,6.1
2022-10-11T23:47:07.752Z,5.9
